Sunday, November 19, 2017, 10:38 AM GMT
Back to Local

CYZX, Greenwood, N. S.

Location: , , Canada Lat: 44.983
Local Time: 10:38 AM GMT (10:38 GMT) Lon: -64.917
Time Zone: GMT Elev: 91 ft

Show me the last for .
Show Coded

Time T Td Feel RH Dir Speed Gust Alt SLP Vis Weather Sky Remarks
2017-11-19 10:00 41 39 34 93 60° 12 - 29.56 29.57 8 -SHRA FEW012 OVC040 Pressure falling rapidly
2017-11-19 09:00 39 37 35 93 50° 6 - 29.63 29.63 12 -SHRA OVC045 None
2017-11-19 08:00 36 34 30 93 60° 7 - 29.67 29.67 15 -SHRA OVC060 None
2017-11-19 07:00 36 32 31 86 80° 6 - 29.71 29.72 15 FEW030 OVC080 None
2017-11-19 06:00 36 30 32 80 50° 5 - 29.74 29.74 15 BKN090 None
2017-11-19 05:00 36 30 33 80 30° 3 - 29.75 29.75 15 BKN110 None
2017-11-19 04:00 34 30 - 86 - Calm - 29.79 29.79 15 BKN120 None
2017-11-19 03:00 34 32 - 93 110° 2 - 29.79 29.80 15 OVC120 None
2017-11-19 02:00 36 30 32 80 190° 5 - 29.79 29.80 15 OVC130 None
2017-11-19 01:00 36 30 - 80 310° 2 - 29.81 29.81 15 FEW024 OVC100 None
2017-11-19 00:00 36 30 33 80 240° 3 - 29.80 29.80 15 SCT024 OVC120 None
2017-11-18 23:00 36 30 - 80 200° 2 - 29.80 29.81 15 BKN021 OVC130 None
2017-11-18 22:00 36 30 31 80 220° 6 - 29.80 29.81 15 BKN021 OVC200 None
2017-11-18 21:00 36 28 29 74 230° 8 - 29.81 29.81 15 BKN021 None
2017-11-18 20:00 36 28 28 74 250° 12 - 29.80 29.80 15 OVC020 None
2017-11-18 19:00 37 28 29 69 250° 14 - 29.80 29.80 15 OVC020 None
2017-11-18 18:00 37 28 28 69 240° 10 17 29.79 29.79 15 OVC020 None
2017-11-18 17:00 34 28 25 80 240° 12 - 29.79 29.80 15 OVC020 None
2017-11-18 16:00 34 28 24 80 250° 14 - 29.80 29.80 15 OVC017 None
2017-11-18 15:00 34 28 29 80 290° 6 - 29.81 29.81 15 OVC018 None
2017-11-18 14:00 32 28 23 86 290° 13 - 29.81 29.81 15 OVC017 None
2017-11-18 13:00 32 28 19 86 310° 18 24 29.81 29.81 15 OVC018 None
2017-11-18 12:00 32 28 20 86 280° 13 18 29.79 29.79 15 OVC018 None
2017-11-18 11:00 32 27 19 80 290° 15 24 29.77 29.78 15 OVC018 None

Support USWX by starting your Amazon purchase here.